CheckWX is a tool to help pilots better visualize weather data.  It is not intended as a substitute for an official pre-flight weather briefing.

09:14:48 UTC

KTEB TAF
Teterboro Airport
Teterboro, New Jersey, USA
KTEB 050521Z 0506/0612 VRB04KT P6SM BKN060 FM050900 VRB04KT P6SM BKN035 FM051400 VRB04KT P6SM SCT035 BKN060 FM051800 21006KT P6SM BKN060 FM060100 VRB04KT P6SM BKN050

Apr-5@
06:00 UTC

Apr-5 @ 06:00 UTC

Apr-5@
09:00 UTC

Apr-5 @ 09:00 UTC

TAF KTEB 050521Z 0506/0612 VRB04KT P6SM BKN060

Expired

Wind
  • Variable at 4 KTS
Cloud Levels
  • Broken at 6,000' AGL

Apr-5@
09:00 UTC

Apr-5 @ 09:00 UTC

Apr-5@
14:00 UTC

Apr-5 @ 14:00 UTC

FM050900 VRB04KT P6SM BKN035

Expired

Wind
  • Variable at 4 KTS
Cloud Levels
  • Broken at 3,500' AGL

Apr-5@
14:00 UTC

Apr-5 @ 14:00 UTC

Apr-5@
18:00 UTC

Apr-5 @ 18:00 UTC

FM051400 VRB04KT P6SM SCT035 BKN060

Expired

Wind
  • Variable at 4 KTS
Cloud Levels
  • Scattered at 3,500' AGL
  • Broken at 6,000' AGL

Apr-5@
18:00 UTC

Apr-5 @ 18:00 UTC

Apr-6@
01:00 UTC

Apr-6 @ 01:00 UTC

FM051800 21006KT P6SM BKN060

Expired

Wind
  • 210° at 6 KTS
Cloud Levels
  • Broken at 6,000' AGL

Apr-6@
01:00 UTC

Apr-6 @ 01:00 UTC

Apr-6@
12:00 UTC

Apr-6 @ 12:00 UTC

FM060100 VRB04KT P6SM BKN050

From

From Standard forecast or significant change

Wind
  • Variable at 4 KTS
Cloud Levels
  • Broken at 5,000' AGL